createdAt,value
2023-04-15T00:08:03.649Z,59.56
2023-04-15T00:18:31.876Z,59.79
2023-04-15T00:28:59.747Z,59.83
2023-04-15T00:39:25.755Z,59.72
2023-04-15T00:49:53.271Z,59.82
2023-04-15T01:00:21.527Z,59.70
2023-04-15T01:10:47.749Z,60.09
2023-04-15T01:21:15.291Z,59.95
2023-04-15T01:31:43.597Z,60.22
2023-04-15T01:42:11.327Z,60.63
2023-04-15T01:52:38.874Z,60.58
2023-04-15T02:03:06.764Z,60.81
2023-04-15T02:13:34.351Z,61.20
2023-04-15T02:24:02.366Z,61.07
2023-04-15T02:34:29.842Z,61.16
2023-04-15T02:44:58.351Z,60.88
2023-04-15T02:55:26.132Z,60.84
2023-04-15T03:05:53.876Z,61.07
2023-04-15T03:16:21.825Z,60.99
2023-04-15T03:26:49.761Z,60.93
2023-04-15T03:37:17.344Z,60.88
2023-04-15T03:47:44.968Z,60.85
2023-04-15T03:58:13.147Z,60.87
2023-04-15T04:08:39.176Z,60.82
2023-04-15T04:19:06.732Z,60.80
2023-04-15T04:29:37.531Z,60.85
2023-04-15T04:40:05.389Z,60.90
2023-04-15T04:50:33.336Z,60.61
2023-04-15T05:01:01.141Z,61.14
2023-04-15T05:11:28.681Z,61.27
2023-04-15T05:21:56.331Z,61.64
2023-04-15T05:32:23.956Z,62.19
2023-04-15T05:42:51.918Z,62.46
2023-04-15T05:53:19.448Z,62.84
2023-04-15T06:03:47.080Z,63.39
2023-04-15T06:14:14.938Z,63.54
2023-04-15T06:24:42.425Z,62.45
2023-04-15T06:35:10.932Z,60.03
2023-04-15T06:45:38.515Z,58.32
2023-04-15T06:56:06.458Z,57.18
2023-04-15T07:06:32.876Z,56.41
2023-04-15T07:17:00.773Z,55.42
2023-04-15T07:27:28.421Z,54.37
2023-04-15T07:37:56.381Z,53.25
2023-04-15T07:48:22.322Z,52.88
2023-04-15T07:58:49.956Z,52.68
2023-04-15T08:09:17.458Z,51.42
2023-04-15T08:19:45.055Z,51.03
2023-04-15T08:30:14.635Z,49.19
2023-04-15T08:40:44.820Z,48.42
2023-04-15T08:51:16.164Z,48.51
2023-04-15T09:01:43.898Z,49.00
2023-04-15T09:12:12.583Z,48.40
2023-04-15T09:22:40.896Z,47.16
2023-04-15T09:33:11.058Z,46.79
2023-04-15T09:43:41.997Z,45.69
2023-04-15T09:54:09.589Z,46.17
2023-04-15T10:04:37.682Z,45.94
2023-04-15T10:15:05.153Z,45.47
2023-04-15T10:25:34.858Z,44.10
2023-04-15T10:36:03.152Z,44.22
2023-04-15T10:46:40.236Z,44.12
2023-04-15T10:57:23.213Z,43.75
2023-04-15T11:07:56.563Z,43.06
2023-04-15T11:18:25.690Z,42.36
2023-04-15T11:28:53.891Z,41.78
2023-04-15T11:39:25.705Z,42.09
2023-04-15T11:49:53.151Z,42.07
2023-04-15T12:00:21.236Z,41.80
2023-04-15T12:10:48.837Z,41.60
2023-04-15T12:21:15.613Z,41.18
2023-04-15T12:31:52.557Z,40.71
2023-04-15T12:42:20.733Z,41.80
2023-04-15T12:52:48.279Z,42.17
2023-04-15T13:03:16.040Z,40.91
2023-04-15T13:13:42.001Z,40.79
2023-04-15T13:24:09.924Z,40.70
2023-04-15T13:34:37.578Z,41.20
2023-04-15T13:45:03.576Z,41.83
2023-04-15T13:55:31.304Z,41.53
2023-04-15T14:05:59.027Z,41.03
2023-04-15T14:16:26.698Z,41.15
2023-04-15T14:26:52.698Z,41.76
2023-04-15T14:37:20.153Z,42.41
2023-04-15T14:47:47.933Z,42.52
2023-04-15T14:58:16.618Z,42.70
2023-04-15T15:08:44.190Z,43.61
2023-04-15T15:19:10.423Z,45.74
2023-04-15T15:29:38.608Z,47.60
2023-04-15T15:40:07.476Z,48.69
2023-04-15T15:50:35.223Z,49.91
2023-04-15T16:01:02.944Z,51.43
2023-04-15T16:11:30.717Z,52.45
2023-04-15T16:21:58.448Z,52.74
2023-04-15T16:32:26.104Z,53.71
2023-04-15T16:42:53.983Z,54.48
2023-04-15T16:53:21.575Z,54.87
2023-04-15T17:03:49.198Z,55.47
2023-04-15T17:14:16.914Z,55.96
2023-04-15T17:24:44.386Z,56.93
2023-04-15T17:35:12.921Z,57.90
2023-04-15T17:45:40.440Z,58.49
2023-04-15T17:56:08.675Z,58.87
2023-04-15T18:06:36.238Z,60.02
2023-04-15T18:17:04.242Z,60.54
2023-04-15T18:27:30.400Z,60.66
2023-04-15T18:37:59.405Z,61.08
2023-04-15T18:48:28.355Z,61.46
2023-04-15T18:59:19.366Z,61.61
2023-04-15T19:09:43.741Z,61.57
2023-04-15T19:20:12.089Z,61.45
2023-04-15T19:30:39.781Z,61.10
2023-04-15T19:41:07.344Z,61.30
2023-04-15T19:51:34.880Z,60.92
2023-04-15T20:02:02.430Z,61.35
2023-04-15T20:12:49.546Z,61.62
2023-04-15T20:23:17.761Z,60.95
2023-04-15T20:33:45.290Z,62.02
2023-04-15T20:44:12.845Z,62.41
2023-04-15T20:54:40.347Z,62.35
2023-04-15T21:05:09.605Z,62.22
2023-04-15T21:15:37.473Z,62.88
2023-04-15T21:26:05.082Z,63.32
2023-04-15T21:36:32.842Z,63.54
2023-04-15T21:47:00.437Z,62.98
2023-04-15T21:57:28.126Z,62.50
2023-04-15T22:07:58.295Z,62.53
2023-04-15T22:18:25.955Z,62.19
2023-04-15T22:28:53.362Z,62.23
2023-04-15T22:39:21.116Z,62.06
2023-04-15T22:49:48.844Z,61.86
2023-04-15T23:00:16.940Z,61.91
2023-04-15T23:10:44.755Z,61.52
2023-04-15T23:21:12.358Z,61.61
2023-04-15T23:31:41.728Z,61.24
2023-04-15T23:42:09.520Z,61.03
2023-04-15T23:52:37.180Z,61.40
